createdAt,value
2023-03-16T00:00:43.331Z,93275.44
2023-03-16T00:03:19.288Z,93278.50
2023-03-16T00:05:51.385Z,93278.63
2023-03-16T00:08:18.542Z,93278.28
2023-03-16T00:10:46.775Z,93286.13
2023-03-16T00:13:17.700Z,93275.19
2023-03-16T00:15:52.371Z,93289.41
2023-03-16T00:18:19.614Z,93290.09
2023-03-16T00:20:55.441Z,93287.44
2023-03-16T00:23:28.815Z,93294.38
2023-03-16T00:25:59.938Z,93294.06
2023-03-16T00:28:27.795Z,93297.81
2023-03-16T00:30:59.186Z,93303.22
2023-03-16T00:33:27.449Z,93296.16
2023-03-16T00:36:02.493Z,93306.59
2023-03-16T00:38:35.092Z,93301.00
2023-03-16T00:41:07.126Z,93306.66
2023-03-16T00:43:41.085Z,93303.34
2023-03-16T00:46:10.132Z,93313.16
2023-03-16T00:48:42.533Z,93317.78
2023-03-16T00:51:15.439Z,93312.91
2023-03-16T00:53:44.022Z,93311.78
2023-03-16T00:56:11.269Z,93318.47
2023-03-16T00:58:39.626Z,93314.91
2023-03-16T01:01:10.355Z,93312.28
2023-03-16T01:03:37.264Z,93308.75
2023-03-16T01:06:10.331Z,93307.25
2023-03-16T01:08:40.921Z,93311.53
2023-03-16T01:11:10.706Z,93313.50
2023-03-16T01:13:38.340Z,93306.84
2023-03-16T01:16:05.471Z,93318.09
2023-03-16T01:18:35.687Z,93319.91
2023-03-16T01:21:03.993Z,93320.78
2023-03-16T01:23:31.625Z,93320.81
2023-03-16T01:25:59.303Z,93324.88
2023-03-16T01:28:28.293Z,93318.47
2023-03-16T01:31:02.004Z,93321.06
2023-03-16T01:33:29.576Z,93321.63
2023-03-16T01:36:01.765Z,93323.66
2023-03-16T01:38:28.940Z,93327.47
2023-03-16T01:40:55.950Z,93325.59
2023-03-16T01:43:26.707Z,93332.25
2023-03-16T01:46:05.455Z,93339.00
2023-03-16T01:48:53.492Z,93335.78
2023-03-16T01:51:32.747Z,93331.41
2023-03-16T01:54:22.405Z,93333.88
2023-03-16T01:56:57.072Z,93323.97
2023-03-16T01:59:28.937Z,93336.38
2023-03-16T02:01:56.652Z,93341.41
2023-03-16T02:04:48.321Z,93347.56
2023-03-16T02:07:17.939Z,93344.00
2023-03-16T02:09:47.100Z,93352.38
2023-03-16T02:12:19.260Z,93348.66
2023-03-16T02:14:47.958Z,93360.16
2023-03-16T02:17:17.300Z,93358.22
2023-03-16T02:20:02.241Z,93361.81
2023-03-16T02:22:28.999Z,93368.84
2023-03-16T02:24:55.717Z,93358.31
2023-03-16T02:28:08.736Z,93371.81
2023-03-16T02:30:35.691Z,93372.88
2023-03-16T02:33:05.189Z,93369.25
2023-03-16T02:35:32.504Z,93371.56
2023-03-16T02:37:59.703Z,93383.13
2023-03-16T02:40:30.256Z,93379.00
2023-03-16T02:43:04.447Z,93383.56
2023-03-16T02:45:55.452Z,93388.22
2023-03-16T02:48:38.164Z,93384.75
2023-03-16T02:51:04.924Z,93386.13
2023-03-16T02:53:31.619Z,93391.72
2023-03-16T02:55:58.218Z,93389.47
2023-03-16T02:58:24.956Z,93391.41
2023-03-16T03:00:51.589Z,93400.91
2023-03-16T03:03:19.011Z,93397.75
2023-03-16T03:05:45.717Z,93397.47
2023-03-16T03:08:13.102Z,93393.81
2023-03-16T03:10:40.113Z,93400.31
2023-03-16T03:13:07.496Z,93401.94
2023-03-16T03:15:35.392Z,93409.72
2023-03-16T03:18:02.553Z,93417.75
2023-03-16T03:20:29.453Z,93418.88
2023-03-16T03:22:56.274Z,93427.50
2023-03-16T03:25:23.103Z,93428.50
2023-03-16T03:27:51.068Z,93438.94
2023-03-16T03:30:20.288Z,93428.41
2023-03-16T03:32:47.181Z,93430.09
2023-03-16T03:35:15.323Z,93432.38
2023-03-16T03:37:45.256Z,93432.38
2023-03-16T03:40:14.448Z,93432.53
2023-03-16T03:42:42.161Z,93432.09
2023-03-16T03:45:12.679Z,93440.19
2023-03-16T03:47:40.923Z,93443.03
2023-03-16T03:50:09.130Z,93438.50
2023-03-16T03:52:35.769Z,93450.91
2023-03-16T03:55:02.441Z,93450.78
2023-03-16T03:57:29.100Z,93462.75
2023-03-16T03:59:55.813Z,93463.53
2023-03-16T04:02:22.581Z,93465.09
2023-03-16T04:04:49.298Z,93459.19
2023-03-16T04:07:16.243Z,93459.16
2023-03-16T04:09:42.911Z,93470.88
2023-03-16T04:12:11.210Z,93460.59
2023-03-16T04:14:37.927Z,93453.91
2023-03-16T04:17:05.004Z,93459.34
2023-03-16T04:19:31.865Z,93476.00
2023-03-16T04:21:58.583Z,93461.84
2023-03-16T04:24:25.251Z,93472.94
2023-03-16T04:26:51.845Z,93475.59
2023-03-16T04:29:19.648Z,93474.22
2023-03-16T04:31:46.908Z,93485.88
2023-03-16T04:34:14.076Z,93491.28
2023-03-16T04:36:42.169Z,93491.81
2023-03-16T04:39:10.498Z,93499.25
2023-03-16T04:41:37.434Z,93502.28
2023-03-16T04:44:04.842Z,93500.03
2023-03-16T04:46:31.814Z,93510.28
2023-03-16T04:48:58.712Z,93514.38
2023-03-16T04:51:26.502Z,93512.19
2023-03-16T04:53:53.313Z,93520.84
2023-03-16T04:56:20.604Z,93524.44
2023-03-16T04:58:49.453Z,93515.25
2023-03-16T05:01:17.437Z,93516.81
2023-03-16T05:03:44.275Z,93518.69
2023-03-16T05:06:12.175Z,93522.03
2023-03-16T05:08:38.818Z,93528.44
2023-03-16T05:11:05.640Z,93524.16
2023-03-16T05:13:32.505Z,93534.72
2023-03-16T05:15:59.221Z,93537.94
2023-03-16T05:18:27.126Z,93544.75
2023-03-16T05:20:56.080Z,93543.97
2023-03-16T05:23:23.107Z,93549.53
2023-03-16T05:25:51.374Z,93544.53
2023-03-16T05:28:18.048Z,93545.81
2023-03-16T05:30:47.865Z,93557.00
2023-03-16T05:33:14.554Z,93559.50
2023-03-16T05:35:41.220Z,93553.59
2023-03-16T05:38:08.720Z,93561.22
2023-03-16T05:40:37.228Z,93553.31
2023-03-16T05:43:04.504Z,93562.13
2023-03-16T05:45:32.402Z,93562.94
2023-03-16T05:47:59.165Z,93568.63
2023-03-16T05:50:26.700Z,93571.75
2023-03-16T05:52:54.271Z,93590.25
2023-03-16T05:55:20.899Z,93577.81
2023-03-16T05:57:47.553Z,93589.47
2023-03-16T06:00:16.325Z,93593.03
2023-03-16T06:02:48.337Z,93592.09
2023-03-16T06:05:16.513Z,93586.97
2023-03-16T06:07:43.603Z,93592.22
2023-03-16T06:10:11.510Z,93594.25
2023-03-16T06:12:38.872Z,93596.75
2023-03-16T06:15:09.329Z,93595.38
2023-03-16T06:17:37.566Z,93597.38
2023-03-16T06:20:10.512Z,93607.47
2023-03-16T06:22:46.640Z,93606.66
2023-03-16T06:25:14.944Z,93607.75
2023-03-16T06:27:42.227Z,93611.31
2023-03-16T06:30:12.058Z,93619.13
2023-03-16T06:32:41.932Z,93623.78
2023-03-16T06:35:09.649Z,93626.41
2023-03-16T06:37:36.330Z,93624.72
2023-03-16T06:40:04.039Z,93634.78
2023-03-16T06:42:30.698Z,93647.84
2023-03-16T06:44:57.554Z,93634.81
2023-03-16T06:47:24.290Z,93639.16
2023-03-16T06:49:51.876Z,93651.56
2023-03-16T06:52:18.577Z,93649.25
2023-03-16T06:54:45.181Z,93656.69
2023-03-16T06:57:11.938Z,93666.47
2023-03-16T06:59:38.589Z,93665.25
2023-03-16T07:02:06.571Z,93664.31
2023-03-16T07:04:34.315Z,93672.53
2023-03-16T07:07:02.224Z,93660.56
2023-03-16T07:09:29.280Z,93673.78
2023-03-16T07:11:56.291Z,93678.91
2023-03-16T07:14:24.788Z,93680.78
2023-03-16T07:16:52.887Z,93679.19
2023-03-16T07:19:19.745Z,93679.06
2023-03-16T07:21:46.461Z,93678.47
2023-03-16T07:24:13.180Z,93682.94
2023-03-16T07:26:39.825Z,93691.34
2023-03-16T07:29:06.531Z,93693.19
2023-03-16T07:31:34.733Z,93689.78
2023-03-16T07:34:03.522Z,93689.63
2023-03-16T07:36:30.211Z,93692.72
2023-03-16T07:38:56.905Z,93691.09
2023-03-16T07:41:24.797Z,93707.16
2023-03-16T07:43:52.015Z,93698.16
2023-03-16T07:46:18.700Z,93702.84
2023-03-16T07:48:45.688Z,93700.94
2023-03-16T07:51:13.957Z,93705.16
2023-03-16T07:53:40.780Z,93707.78
2023-03-16T07:56:08.011Z,93700.50
2023-03-16T07:58:34.699Z,93720.38
2023-03-16T08:01:01.696Z,93711.22
2023-03-16T08:03:29.836Z,93710.25
2023-03-16T08:05:56.537Z,93711.66
2023-03-16T08:08:23.518Z,93710.59
2023-03-16T08:10:52.737Z,93708.72
2023-03-16T08:13:20.600Z,93708.56
2023-03-16T08:15:49.462Z,93719.28
2023-03-16T08:18:16.353Z,93718.66
2023-03-16T08:20:44.706Z,93718.78
2023-03-16T08:23:13.261Z,93727.63
2023-03-16T08:25:39.890Z,93726.53
2023-03-16T08:28:08.918Z,93730.38
2023-03-16T08:30:36.009Z,93733.19
2023-03-16T08:33:03.534Z,93733.53
2023-03-16T08:35:30.248Z,93733.28
2023-03-16T08:37:56.885Z,93740.69
2023-03-16T08:40:25.099Z,93745.22
2023-03-16T08:42:52.523Z,93744.72
2023-03-16T08:45:20.029Z,93745.09
2023-03-16T08:47:46.807Z,93733.69
2023-03-16T08:50:13.748Z,93742.72
2023-03-16T08:52:40.895Z,93741.63
2023-03-16T08:55:09.697Z,93762.34
2023-03-16T08:57:37.616Z,93750.22
2023-03-16T09:00:12.807Z,93744.94
2023-03-16T09:02:40.849Z,93751.13
2023-03-16T09:05:12.826Z,93754.47
2023-03-16T09:07:39.671Z,93744.16
2023-03-16T09:10:13.536Z,93749.41
2023-03-16T09:12:41.059Z,93753.97
2023-03-16T09:15:10.224Z,93748.78
2023-03-16T09:17:36.868Z,93752.47
2023-03-16T09:20:19.616Z,93755.63
2023-03-16T09:22:48.809Z,93761.69
2023-03-16T09:25:15.674Z,93760.00
2023-03-16T09:27:42.753Z,93771.78
2023-03-16T09:30:10.530Z,93762.66
2023-03-16T09:32:37.593Z,93768.03
2023-03-16T09:35:06.398Z,93765.44
2023-03-16T09:37:44.628Z,93773.03
2023-03-16T09:40:38.288Z,93765.66
2023-03-16T09:43:17.444Z,93773.66
2023-03-16T09:46:12.114Z,93768.25
2023-03-16T09:48:39.923Z,93774.28
2023-03-16T09:51:14.613Z,93773.13
2023-03-16T09:53:42.081Z,93772.84
2023-03-16T09:56:18.351Z,93769.53
2023-03-16T09:58:45.773Z,93776.91
2023-03-16T10:01:31.062Z,93769.09
2023-03-16T10:04:09.909Z,93774.56
2023-03-16T10:06:55.398Z,93775.06
2023-03-16T10:09:38.417Z,93777.47
2023-03-16T10:12:07.908Z,93771.97
2023-03-16T10:14:58.742Z,93772.31
2023-03-16T10:17:38.915Z,93773.22
2023-03-16T10:20:10.767Z,93768.06
2023-03-16T10:22:44.916Z,93774.97
2023-03-16T10:25:23.674Z,93781.06
2023-03-16T10:27:50.806Z,93786.88
2023-03-16T10:30:25.805Z,93777.34
2023-03-16T10:32:52.900Z,93772.63
2023-03-16T10:35:44.932Z,93779.19
2023-03-16T10:38:43.218Z,93781.06
2023-03-16T10:41:19.185Z,93774.56
2023-03-16T10:43:51.952Z,93773.78
2023-03-16T10:46:19.074Z,93770.09
2023-03-16T10:49:02.236Z,93769.78
2023-03-16T10:51:37.378Z,93759.88
2023-03-16T10:54:19.797Z,93770.88
2023-03-16T10:56:46.436Z,93767.63
2023-03-16T10:59:32.057Z,93770.25
2023-03-16T11:01:59.650Z,93771.94
2023-03-16T11:04:31.884Z,93785.34
2023-03-16T11:06:59.279Z,93777.50
2023-03-16T11:09:34.896Z,93779.69
2023-03-16T11:12:14.212Z,93777.22
2023-03-16T11:14:45.038Z,93773.59
2023-03-16T11:17:17.771Z,93770.34
2023-03-16T11:19:57.864Z,93780.03
2023-03-16T11:22:26.209Z,93771.19
2023-03-16T11:25:12.664Z,93781.56
2023-03-16T11:28:00.324Z,93782.59
2023-03-16T11:30:41.414Z,93774.97
2023-03-16T11:33:14.270Z,93775.19
2023-03-16T11:35:58.772Z,93773.25
2023-03-16T11:38:31.668Z,93778.34
2023-03-16T11:41:10.733Z,93787.78
2023-03-16T11:43:56.996Z,93779.28
2023-03-16T11:46:25.668Z,93773.69
2023-03-16T11:48:59.975Z,93772.66
2023-03-16T11:51:36.607Z,93780.97
2023-03-16T11:54:15.466Z,93782.88
2023-03-16T11:57:29.722Z,93782.84
2023-03-16T12:00:12.998Z,93782.25
2023-03-16T12:03:15.091Z,93788.59
2023-03-16T12:05:48.685Z,93798.94
2023-03-16T12:08:34.102Z,93795.16
2023-03-16T12:11:08.412Z,93794.03
2023-03-16T12:13:40.916Z,93792.97
2023-03-16T12:16:49.176Z,93803.22
2023-03-16T12:19:24.971Z,93806.94
2023-03-16T12:22:13.913Z,93803.22
2023-03-16T12:24:44.095Z,93813.59
2023-03-16T12:27:16.299Z,93804.28
2023-03-16T12:29:55.738Z,93812.88
2023-03-16T12:32:35.657Z,93818.72
2023-03-16T12:35:11.847Z,93810.97
2023-03-16T12:37:50.379Z,93821.56
2023-03-16T12:40:20.563Z,93819.44
2023-03-16T12:43:08.429Z,93831.47
2023-03-16T12:45:51.888Z,93831.38
2023-03-16T12:48:29.912Z,93832.63
2023-03-16T12:50:59.713Z,93843.63
2023-03-16T12:53:44.093Z,93834.16
2023-03-16T12:56:19.703Z,93833.91
2023-03-16T12:58:50.281Z,93839.53
2023-03-16T13:01:20.862Z,93847.38
2023-03-16T13:03:50.904Z,93843.72
2023-03-16T13:06:24.977Z,93840.94
2023-03-16T13:09:01.403Z,93842.97
2023-03-16T13:11:28.683Z,93839.31
2023-03-16T13:14:01.085Z,93846.91
2023-03-16T13:16:30.658Z,93843.16
2023-03-16T13:18:57.610Z,93845.97
2023-03-16T13:21:42.719Z,93852.16
2023-03-16T13:24:26.124Z,93838.41
2023-03-16T13:27:06.623Z,93849.16
2023-03-16T13:29:34.010Z,93847.03
2023-03-16T13:32:08.729Z,93866.06
2023-03-16T13:34:51.021Z,93851.25
2023-03-16T13:37:20.665Z,93860.13
2023-03-16T13:39:56.054Z,93858.56
2023-03-16T13:42:24.649Z,93856.53
2023-03-16T13:44:56.688Z,93852.03
2023-03-16T13:47:27.790Z,93863.22
2023-03-16T13:49:59.513Z,93858.69
2023-03-16T13:52:34.435Z,93854.66
2023-03-16T13:55:15.385Z,93861.84
2023-03-16T13:57:44.377Z,93869.00
2023-03-16T14:00:32.406Z,93863.84
2023-03-16T14:03:04.412Z,93877.50
2023-03-16T14:05:35.262Z,93878.94
2023-03-16T14:08:02.322Z,93877.56
2023-03-16T14:10:34.402Z,93879.41
2023-03-16T14:13:25.544Z,93885.28
2023-03-16T14:16:19.913Z,93882.56
2023-03-16T14:18:52.119Z,93893.22
2023-03-16T14:21:27.699Z,93890.16
2023-03-16T14:24:00.175Z,93887.81
2023-03-16T14:26:27.221Z,93892.59
2023-03-16T14:29:02.791Z,93895.41
2023-03-16T14:31:35.812Z,93904.88
2023-03-16T14:34:04.957Z,93899.91
2023-03-16T14:36:37.249Z,93900.72
2023-03-16T14:39:16.919Z,93905.41
2023-03-16T14:41:45.396Z,93897.13
2023-03-16T14:44:24.512Z,93907.59
2023-03-16T14:46:54.228Z,93912.94
2023-03-16T14:49:33.618Z,93914.00
2023-03-16T14:52:12.196Z,93915.28
2023-03-16T14:54:38.791Z,93919.22
2023-03-16T14:57:05.932Z,93917.66
2023-03-16T14:59:33.838Z,93915.63
2023-03-16T15:02:03.234Z,93920.91
2023-03-16T15:04:36.475Z,93920.75
2023-03-16T15:07:19.441Z,93922.47
2023-03-16T15:09:46.387Z,93934.03
2023-03-16T15:12:18.161Z,93932.31
2023-03-16T15:15:03.351Z,93935.88
2023-03-16T15:17:30.510Z,93940.84
2023-03-16T15:19:57.448Z,93938.41
2023-03-16T15:22:31.769Z,93937.78
2023-03-16T15:25:00.202Z,93942.72
2023-03-16T15:27:35.788Z,93942.56
2023-03-16T15:30:02.524Z,93948.94
2023-03-16T15:32:29.251Z,93958.50
2023-03-16T15:34:55.927Z,93963.06
2023-03-16T15:37:24.451Z,93958.16
2023-03-16T15:39:51.502Z,93953.28
2023-03-16T15:42:19.409Z,93961.53
2023-03-16T15:44:46.824Z,93961.34
2023-03-16T15:47:13.566Z,93971.97
2023-03-16T15:49:47.212Z,93972.75
2023-03-16T15:52:26.887Z,93974.38
2023-03-16T15:54:53.668Z,93977.13
2023-03-16T15:57:20.938Z,93966.56
2023-03-16T15:59:47.642Z,93976.16
2023-03-16T16:02:31.997Z,93971.03
2023-03-16T16:04:59.560Z,93983.19
2023-03-16T16:07:27.201Z,93993.56
2023-03-16T16:09:53.808Z,94000.03
2023-03-16T16:12:26.839Z,93999.09
2023-03-16T16:14:56.328Z,93997.13
2023-03-16T16:17:36.620Z,93996.56
2023-03-16T16:20:22.916Z,94003.59
2023-03-16T16:22:52.040Z,94000.31
2023-03-16T16:25:21.357Z,94005.16
2023-03-16T16:27:48.272Z,94001.25
2023-03-16T16:30:23.518Z,94011.34
2023-03-16T16:32:51.424Z,94014.22
2023-03-16T16:35:23.046Z,94017.56
2023-03-16T16:37:50.600Z,94019.44
2023-03-16T16:40:20.041Z,94018.53
2023-03-16T16:42:48.280Z,94029.13
2023-03-16T16:45:23.798Z,94025.78
2023-03-16T16:47:53.172Z,94025.34
2023-03-16T16:50:23.492Z,94028.09
2023-03-16T16:52:50.317Z,94029.78
2023-03-16T16:55:17.942Z,94035.88
2023-03-16T16:57:45.614Z,94038.97
2023-03-16T17:00:21.386Z,94039.28
2023-03-16T17:02:51.690Z,94041.34
2023-03-16T17:05:22.432Z,94043.19
2023-03-16T17:07:50.243Z,94041.66
2023-03-16T17:10:22.773Z,94041.38
2023-03-16T17:12:55.296Z,94042.13
2023-03-16T17:15:26.563Z,94046.47
2023-03-16T17:18:00.043Z,94051.97
2023-03-16T17:20:27.483Z,94059.47
2023-03-16T17:22:57.285Z,94051.97
2023-03-16T17:25:24.665Z,94061.69
2023-03-16T17:27:54.567Z,94065.19
2023-03-16T17:30:27.641Z,94062.09
2023-03-16T17:32:59.357Z,94061.28
2023-03-16T17:35:26.328Z,94066.72
2023-03-16T17:37:52.948Z,94073.41
2023-03-16T17:40:22.752Z,94065.09
2023-03-16T17:42:50.474Z,94069.97
2023-03-16T17:45:18.584Z,94073.56
2023-03-16T17:47:45.333Z,94073.75
2023-03-16T17:50:17.986Z,94077.25
2023-03-16T17:52:44.669Z,94083.78
2023-03-16T17:55:11.516Z,94085.78
2023-03-16T17:57:38.710Z,94086.78
2023-03-16T18:00:20.363Z,94087.09
2023-03-16T18:02:56.001Z,94092.22
2023-03-16T18:05:34.785Z,94091.13
2023-03-16T18:08:25.980Z,94093.97
2023-03-16T18:10:59.176Z,94093.38
2023-03-16T18:13:28.137Z,94096.69
2023-03-16T18:15:56.039Z,94103.94
2023-03-16T18:18:26.378Z,94098.47
2023-03-16T18:20:54.938Z,94098.16
2023-03-16T18:23:23.515Z,94100.63
2023-03-16T18:25:52.622Z,94103.16
2023-03-16T18:28:20.686Z,94102.38
2023-03-16T18:30:52.110Z,94107.16
2023-03-16T18:33:30.139Z,94101.75
2023-03-16T18:35:59.782Z,94104.94
2023-03-16T18:38:39.324Z,94111.44
2023-03-16T18:41:21.037Z,94115.69
2023-03-16T18:43:47.779Z,94109.69
2023-03-16T18:46:35.881Z,94112.59
2023-03-16T18:49:10.769Z,94111.34
2023-03-16T18:51:37.462Z,94104.38
2023-03-16T18:54:04.952Z,94107.28
2023-03-16T18:56:31.879Z,94111.25
2023-03-16T18:58:58.460Z,94111.09
2023-03-16T19:01:28.935Z,94117.09
2023-03-16T19:03:57.857Z,94112.88
2023-03-16T19:06:33.686Z,94113.72
2023-03-16T19:09:08.775Z,94123.03
2023-03-16T19:11:41.549Z,94126.50
2023-03-16T19:14:24.524Z,94124.94
2023-03-16T19:16:52.539Z,94130.06
2023-03-16T19:19:23.398Z,94127.59
2023-03-16T19:21:53.809Z,94129.16
2023-03-16T19:24:34.577Z,94129.22
2023-03-16T19:27:02.267Z,94137.91
2023-03-16T19:29:34.300Z,94132.84
2023-03-16T19:32:02.270Z,94132.56
2023-03-16T19:34:29.230Z,94141.16
2023-03-16T19:36:56.011Z,94145.22
2023-03-16T19:39:22.749Z,94138.38
2023-03-16T19:41:56.511Z,94141.75
2023-03-16T19:44:26.555Z,94142.53
2023-03-16T19:46:53.711Z,94143.22
2023-03-16T19:49:27.102Z,94135.69
2023-03-16T19:51:55.372Z,94140.47
2023-03-16T19:54:28.207Z,94139.19
2023-03-16T19:56:56.510Z,94141.94
2023-03-16T19:59:26.735Z,94139.69
2023-03-16T20:01:53.520Z,94143.25
2023-03-16T20:04:25.253Z,94142.50
2023-03-16T20:06:53.774Z,94140.91
2023-03-16T20:09:20.879Z,94149.38
2023-03-16T20:11:48.587Z,94143.19
2023-03-16T20:14:29.157Z,94143.34
2023-03-16T20:16:56.082Z,94152.72
2023-03-16T20:19:23.225Z,94146.53
2023-03-16T20:21:49.944Z,94161.75
2023-03-16T20:24:19.240Z,94157.66
2023-03-16T20:26:48.528Z,94159.75
2023-03-16T20:29:44.491Z,94155.84
2023-03-16T20:32:23.459Z,94163.28
2023-03-16T20:34:51.306Z,94163.91
2023-03-16T20:37:27.160Z,94161.69
2023-03-16T20:39:56.089Z,94159.63
2023-03-16T20:42:27.629Z,94153.50
2023-03-16T20:44:54.472Z,94158.38
2023-03-16T20:47:23.978Z,94159.03
2023-03-16T20:49:52.452Z,94155.59
2023-03-16T20:52:30.448Z,94162.53
2023-03-16T20:54:58.088Z,94164.34
2023-03-16T20:57:27.590Z,94169.78
2023-03-16T20:59:55.452Z,94174.41
2023-03-16T21:02:29.743Z,94170.50
2023-03-16T21:04:59.343Z,94167.94
2023-03-16T21:07:26.076Z,94170.88
2023-03-16T21:09:52.815Z,94172.28
2023-03-16T21:12:32.215Z,94165.38
2023-03-16T21:15:00.284Z,94171.06
2023-03-16T21:17:33.082Z,94176.66
2023-03-16T21:20:00.924Z,94172.41
2023-03-16T21:22:30.429Z,94171.66
2023-03-16T21:24:57.907Z,94180.25
2023-03-16T21:27:32.951Z,94181.91
2023-03-16T21:30:07.327Z,94175.66
2023-03-16T21:32:34.087Z,94179.59
2023-03-16T21:35:00.868Z,94182.91
2023-03-16T21:37:28.009Z,94181.81
2023-03-16T21:39:54.759Z,94180.44
2023-03-16T21:42:22.265Z,94178.81
2023-03-16T21:44:48.901Z,94182.72
2023-03-16T21:47:26.063Z,94177.97
2023-03-16T21:49:54.670Z,94176.06
2023-03-16T21:52:23.775Z,94174.97
2023-03-16T21:54:52.843Z,94182.19
2023-03-16T21:57:19.991Z,94182.72
2023-03-16T21:59:47.172Z,94183.56
2023-03-16T22:02:22.673Z,94178.78
2023-03-16T22:04:50.853Z,94178.22
2023-03-16T22:07:18.302Z,94188.09
2023-03-16T22:09:45.480Z,94183.75
2023-03-16T22:12:14.034Z,94188.88
2023-03-16T22:14:41.886Z,94184.25
2023-03-16T22:17:21.878Z,94184.47
2023-03-16T22:19:48.770Z,94186.63
2023-03-16T22:22:17.538Z,94188.78
2023-03-16T22:24:44.193Z,94182.50
2023-03-16T22:27:19.108Z,94182.25
2023-03-16T22:29:45.852Z,94178.06
2023-03-16T22:32:18.173Z,94180.50
2023-03-16T22:34:51.024Z,94180.25
2023-03-16T22:37:21.193Z,94184.03
2023-03-16T22:39:49.286Z,94190.34
2023-03-16T22:42:26.042Z,94196.16
2023-03-16T22:44:54.347Z,94197.38
2023-03-16T22:47:26.546Z,94199.91
2023-03-16T22:49:53.969Z,94200.06
2023-03-16T22:52:25.612Z,94202.38
2023-03-16T22:54:52.851Z,94207.19
2023-03-16T22:57:19.867Z,94208.28
2023-03-16T22:59:48.056Z,94211.47
2023-03-16T23:02:16.130Z,94214.38
2023-03-16T23:04:42.848Z,94216.44
2023-03-16T23:07:12.561Z,94227.88
2023-03-16T23:09:39.739Z,94227.72
2023-03-16T23:12:14.934Z,94224.13
2023-03-16T23:14:42.347Z,94228.13
2023-03-16T23:17:20.803Z,94229.28
2023-03-16T23:19:49.281Z,94228.03
2023-03-16T23:22:16.366Z,94240.31
2023-03-16T23:24:43.337Z,94243.59
2023-03-16T23:27:27.966Z,94243.25
2023-03-16T23:29:54.617Z,94243.75
2023-03-16T23:32:21.951Z,94247.41
2023-03-16T23:34:48.536Z,94249.09
2023-03-16T23:37:15.902Z,94250.72
2023-03-16T23:39:42.516Z,94257.16
2023-03-16T23:42:09.404Z,94264.75
2023-03-16T23:44:36.480Z,94260.84
2023-03-16T23:47:03.176Z,94263.41
2023-03-16T23:49:33.062Z,94262.69
2023-03-16T23:52:01.566Z,94265.09
2023-03-16T23:54:31.114Z,94270.59
2023-03-16T23:56:58.032Z,94267.63
2023-03-16T23:59:26.847Z,94263.41
